sensor_id;sensor_type;location;lat;lon;timestamp;P1;durP1;ratioP1;P2;durP2;ratioP2
23676;SDS011;31493;49.058;12.190;2022-09-09T00:00:18;5.87;;;3.47;;
23676;SDS011;31493;49.058;12.190;2022-09-09T00:02:49;4.15;;;3.05;;
23676;SDS011;31493;49.058;12.190;2022-09-09T00:05:30;6.28;;;3.35;;
23676;SDS011;31493;49.058;12.190;2022-09-09T00:08:02;5.82;;;3.25;;
23676;SDS011;31493;49.058;12.190;2022-09-09T00:10:32;3.63;;;3.10;;
23676;SDS011;31493;49.058;12.190;2022-09-09T00:13:02;6.00;;;3.60;;
23676;SDS011;31493;49.058;12.190;2022-09-09T00:15:38;4.10;;;2.95;;
23676;SDS011;31493;49.058;12.190;2022-09-09T00:18:14;6.25;;;3.50;;
23676;SDS011;31493;49.058;12.190;2022-09-09T00:20:48;9.63;;;3.30;;
23676;SDS011;31493;49.058;12.190;2022-09-09T00:23:22;5.68;;;3.72;;
23676;SDS011;31493;49.058;12.190;2022-09-09T00:25:54;6.75;;;3.80;;
23676;SDS011;31493;49.058;12.190;2022-09-09T00:28:29;5.07;;;3.55;;
23676;SDS011;31493;49.058;12.190;2022-09-09T00:30:59;7.82;;;3.28;;
23676;SDS011;31493;49.058;12.190;2022-09-09T00:33:37;6.07;;;3.20;;
23676;SDS011;31493;49.058;12.190;2022-09-09T00:36:07;5.80;;;3.50;;
23676;SDS011;31493;49.058;12.190;2022-09-09T00:38:40;4.68;;;3.50;;
23676;SDS011;31493;49.058;12.190;2022-09-09T00:41:11;6.55;;;3.58;;
23676;SDS011;31493;49.058;12.190;2022-09-09T00:43:46;4.80;;;3.53;;
23676;SDS011;31493;49.058;12.190;2022-09-09T00:46:26;4.95;;;3.40;;
23676;SDS011;31493;49.058;12.190;2022-09-09T00:49:11;6.32;;;3.55;;
23676;SDS011;31493;49.058;12.190;2022-09-09T00:54:25;6.15;;;3.38;;
23676;SDS011;31493;49.058;12.190;2022-09-09T00:57:01;7.80;;;3.85;;
23676;SDS011;31493;49.058;12.190;2022-09-09T00:59:40;4.75;;;3.47;;
23676;SDS011;31493;49.058;12.190;2022-09-09T01:02:14;5.20;;;3.38;;
23676;SDS011;31493;49.058;12.190;2022-09-09T01:04:50;6.50;;;3.30;;
23676;SDS011;31493;49.058;12.190;2022-09-09T01:07:17;6.20;;;4.18;;
23676;SDS011;31493;49.058;12.190;2022-09-09T01:09:50;6.57;;;3.80;;
23676;SDS011;31493;49.058;12.190;2022-09-09T01:12:24;5.30;;;4.13;;
23676;SDS011;31493;49.058;12.190;2022-09-09T01:14:56;6.95;;;4.18;;
23676;SDS011;31493;49.058;12.190;2022-09-09T01:17:34;4.72;;;4.18;;
23676;SDS011;31493;49.058;12.190;2022-09-09T01:20:09;9.27;;;3.95;;
23676;SDS011;31493;49.058;12.190;2022-09-09T01:22:40;7.10;;;4.60;;
23676;SDS011;31493;49.058;12.190;2022-09-09T01:25:21;6.00;;;4.38;;
23676;SDS011;31493;49.058;12.190;2022-09-09T01:27:56;7.55;;;4.32;;
23676;SDS011;31493;49.058;12.190;2022-09-09T01:30:26;9.52;;;4.82;;
23676;SDS011;31493;49.058;12.190;2022-09-09T01:32:55;8.90;;;4.60;;
23676;SDS011;31493;49.058;12.190;2022-09-09T01:35:29;7.20;;;4.43;;
23676;SDS011;31493;49.058;12.190;2022-09-09T01:38:04;5.57;;;4.00;;
23676;SDS011;31493;49.058;12.190;2022-09-09T01:40:32;5.85;;;4.13;;
23676;SDS011;31493;49.058;12.190;2022-09-09T01:43:01;10.07;;;5.18;;
23676;SDS011;31493;49.058;12.190;2022-09-09T01:47:55;8.05;;;5.03;;
23676;SDS011;31493;49.058;12.190;2022-09-09T01:50:23;8.18;;;4.75;;
23676;SDS011;31493;49.058;12.190;2022-09-09T01:52:51;6.05;;;4.93;;
23676;SDS011;31493;49.058;12.190;2022-09-09T01:55:23;6.03;;;4.82;;
23676;SDS011;31493;49.058;12.190;2022-09-09T01:57:59;24.33;;;5.35;;
23676;SDS011;31493;49.058;12.190;2022-09-09T02:00:41;5.25;;;4.10;;
23676;SDS011;31493;49.058;12.190;2022-09-09T02:03:14;6.60;;;4.60;;
23676;SDS011;31493;49.058;12.190;2022-09-09T02:05:52;7.10;;;5.20;;
23676;SDS011;31493;49.058;12.190;2022-09-09T02:08:28;5.93;;;4.50;;
23676;SDS011;31493;49.058;12.190;2022-09-09T02:11:05;6.50;;;5.05;;
23676;SDS011;31493;49.058;12.190;2022-09-09T02:13:35;6.78;;;4.80;;
23676;SDS011;31493;49.058;12.190;2022-09-09T02:16:06;5.50;;;4.95;;
23676;SDS011;31493;49.058;12.190;2022-09-09T02:18:35;9.43;;;4.93;;
23676;SDS011;31493;49.058;12.190;2022-09-09T02:21:06;7.63;;;5.47;;
23676;SDS011;31493;49.058;12.190;2022-09-09T02:23:34;7.18;;;4.90;;
23676;SDS011;31493;49.058;12.190;2022-09-09T02:26:02;8.40;;;5.13;;
23676;SDS011;31493;49.058;12.190;2022-09-09T02:28:31;6.05;;;4.93;;
23676;SDS011;31493;49.058;12.190;2022-09-09T02:31:01;7.68;;;5.78;;
23676;SDS011;31493;49.058;12.190;2022-09-09T02:33:29;8.90;;;5.18;;
23676;SDS011;31493;49.058;12.190;2022-09-09T02:36:01;10.77;;;5.72;;
23676;SDS011;31493;49.058;12.190;2022-09-09T02:38:34;5.97;;;5.07;;
23676;SDS011;31493;49.058;12.190;2022-09-09T02:41:05;9.15;;;6.10;;
23676;SDS011;31493;49.058;12.190;2022-09-09T02:43:32;9.30;;;5.80;;
23676;SDS011;31493;49.058;12.190;2022-09-09T02:46:02;9.43;;;6.78;;
23676;SDS011;31493;49.058;12.190;2022-09-09T02:48:36;6.63;;;6.03;;
23676;SDS011;31493;49.058;12.190;2022-09-09T02:51:15;9.15;;;6.57;;
23676;SDS011;31493;49.058;12.190;2022-09-09T02:53:52;8.85;;;6.30;;
23676;SDS011;31493;49.058;12.190;2022-09-09T02:56:29;7.60;;;6.80;;
23676;SDS011;31493;49.058;12.190;2022-09-09T02:58:59;8.75;;;7.30;;
23676;SDS011;31493;49.058;12.190;2022-09-09T03:01:30;10.98;;;7.05;;
23676;SDS011;31493;49.058;12.190;2022-09-09T03:03:58;8.65;;;7.40;;
23676;SDS011;31493;49.058;12.190;2022-09-09T03:06:25;8.55;;;7.43;;
23676;SDS011;31493;49.058;12.190;2022-09-09T03:08:53;10.52;;;7.43;;
23676;SDS011;31493;49.058;12.190;2022-09-09T03:11:20;10.85;;;8.85;;
23676;SDS011;31493;49.058;12.190;2022-09-09T03:13:47;11.05;;;8.95;;
23676;SDS011;31493;49.058;12.190;2022-09-09T03:16:15;10.73;;;8.82;;
23676;SDS011;31493;49.058;12.190;2022-09-09T03:18:44;10.15;;;8.85;;
23676;SDS011;31493;49.058;12.190;2022-09-09T03:21:11;10.20;;;9.10;;
23676;SDS011;31493;49.058;12.190;2022-09-09T03:23:39;10.23;;;8.90;;
23676;SDS011;31493;49.058;12.190;2022-09-09T03:26:06;12.02;;;9.07;;
23676;SDS011;31493;49.058;12.190;2022-09-09T03:28:33;12.38;;;9.23;;
23676;SDS011;31493;49.058;12.190;2022-09-09T03:31:01;12.93;;;9.25;;
23676;SDS011;31493;49.058;12.190;2022-09-09T03:33:29;13.32;;;9.43;;
23676;SDS011;31493;49.058;12.190;2022-09-09T03:35:58;15.60;;;10.30;;
23676;SDS011;31493;49.058;12.190;2022-09-09T03:38:25;10.73;;;9.18;;
23676;SDS011;31493;49.058;12.190;2022-09-09T03:40:52;11.18;;;9.93;;
23676;SDS011;31493;49.058;12.190;2022-09-09T03:43:21;12.88;;;9.50;;
23676;SDS011;31493;49.058;12.190;2022-09-09T03:45:48;11.32;;;10.13;;
23676;SDS011;31493;49.058;12.190;2022-09-09T03:48:16;11.30;;;9.77;;
23676;SDS011;31493;49.058;12.190;2022-09-09T03:50:44;11.00;;;9.88;;
23676;SDS011;31493;49.058;12.190;2022-09-09T03:53:13;13.93;;;11.68;;
23676;SDS011;31493;49.058;12.190;2022-09-09T03:55:43;11.55;;;10.43;;
23676;SDS011;31493;49.058;12.190;2022-09-09T03:58:11;13.52;;;10.73;;
23676;SDS011;31493;49.058;12.190;2022-09-09T04:00:39;12.80;;;10.85;;
23676;SDS011;31493;49.058;12.190;2022-09-09T04:03:07;13.95;;;11.50;;
23676;SDS011;31493;49.058;12.190;2022-09-09T04:05:35;11.55;;;10.13;;
23676;SDS011;31493;49.058;12.190;2022-09-09T04:08:05;13.93;;;12.18;;
23676;SDS011;31493;49.058;12.190;2022-09-09T04:10:34;13.68;;;10.68;;
23676;SDS011;31493;49.058;12.190;2022-09-09T04:13:02;12.32;;;10.45;;
23676;SDS011;31493;49.058;12.190;2022-09-09T04:15:30;15.00;;;12.75;;
23676;SDS011;31493;49.058;12.190;2022-09-09T04:17:57;14.02;;;12.48;;
23676;SDS011;31493;49.058;12.190;2022-09-09T04:20:24;13.77;;;11.48;;
23676;SDS011;31493;49.058;12.190;2022-09-09T04:22:51;15.75;;;12.05;;
23676;SDS011;31493;49.058;12.190;2022-09-09T04:25:18;12.43;;;11.13;;
23676;SDS011;31493;49.058;12.190;2022-09-09T04:27:47;14.45;;;12.18;;
23676;SDS011;31493;49.058;12.190;2022-09-09T04:30:16;13.38;;;11.90;;
23676;SDS011;31493;49.058;12.190;2022-09-09T04:32:43;15.15;;;10.60;;
23676;SDS011;31493;49.058;12.190;2022-09-09T04:35:10;15.05;;;12.32;;
23676;SDS011;31493;49.058;12.190;2022-09-09T04:37:37;15.63;;;12.98;;
23676;SDS011;31493;49.058;12.190;2022-09-09T04:40:04;18.60;;;12.82;;
23676;SDS011;31493;49.058;12.190;2022-09-09T04:42:34;16.38;;;11.55;;
23676;SDS011;31493;49.058;12.190;2022-09-09T04:45:03;13.48;;;11.80;;
23676;SDS011;31493;49.058;12.190;2022-09-09T04:47:30;17.13;;;12.07;;
23676;SDS011;31493;49.058;12.190;2022-09-09T04:49:57;16.73;;;12.25;;
23676;SDS011;31493;49.058;12.190;2022-09-09T04:52:24;16.17;;;10.80;;
23676;SDS011;31493;49.058;12.190;2022-09-09T04:54:51;14.43;;;11.50;;
23676;SDS011;31493;49.058;12.190;2022-09-09T04:57:19;16.15;;;11.32;;
23676;SDS011;31493;49.058;12.190;2022-09-09T04:59:46;12.77;;;9.77;;
23676;SDS011;31493;49.058;12.190;2022-09-09T05:02:15;14.25;;;10.00;;
23676;SDS011;31493;49.058;12.190;2022-09-09T05:04:42;13.18;;;9.52;;
23676;SDS011;31493;49.058;12.190;2022-09-09T05:07:09;10.65;;;9.50;;
23676;SDS011;31493;49.058;12.190;2022-09-09T05:09:36;15.15;;;9.40;;
23676;SDS011;31493;49.058;12.190;2022-09-09T05:12:03;12.77;;;9.90;;
23676;SDS011;31493;49.058;12.190;2022-09-09T05:14:30;12.90;;;9.07;;
23676;SDS011;31493;49.058;12.190;2022-09-09T05:16:57;11.27;;;8.93;;
23676;SDS011;31493;49.058;12.190;2022-09-09T05:19:25;12.10;;;9.10;;
23676;SDS011;31493;49.058;12.190;2022-09-09T05:21:52;9.68;;;8.68;;
23676;SDS011;31493;49.058;12.190;2022-09-09T05:24:19;14.35;;;10.05;;
23676;SDS011;31493;49.058;12.190;2022-09-09T05:26:48;11.65;;;8.38;;
23676;SDS011;31493;49.058;12.190;2022-09-09T05:29:16;10.48;;;8.70;;
23676;SDS011;31493;49.058;12.190;2022-09-09T05:31:44;11.32;;;8.40;;
23676;SDS011;31493;49.058;12.190;2022-09-09T05:34:12;10.35;;;8.13;;
23676;SDS011;31493;49.058;12.190;2022-09-09T05:36:41;11.93;;;8.55;;
23676;SDS011;31493;49.058;12.190;2022-09-09T05:39:08;10.45;;;8.25;;
23676;SDS011;31493;49.058;12.190;2022-09-09T05:41:37;9.98;;;8.10;;
23676;SDS011;31493;49.058;12.190;2022-09-09T05:44:04;13.32;;;8.27;;
23676;SDS011;31493;49.058;12.190;2022-09-09T05:46:31;9.57;;;7.75;;
23676;SDS011;31493;49.058;12.190;2022-09-09T05:48:58;11.05;;;7.45;;
23676;SDS011;31493;49.058;12.190;2022-09-09T05:51:26;10.52;;;7.28;;
23676;SDS011;31493;49.058;12.190;2022-09-09T05:53:56;10.50;;;7.10;;
23676;SDS011;31493;49.058;12.190;2022-09-09T05:56:25;9.45;;;7.05;;
23676;SDS011;31493;49.058;12.190;2022-09-09T05:58:54;9.27;;;7.38;;
23676;SDS011;31493;49.058;12.190;2022-09-09T06:01:22;7.88;;;6.57;;
23676;SDS011;31493;49.058;12.190;2022-09-09T06:03:51;8.35;;;6.72;;
23676;SDS011;31493;49.058;12.190;2022-09-09T06:06:20;11.35;;;6.22;;
23676;SDS011;31493;49.058;12.190;2022-09-09T06:08:50;8.02;;;6.45;;
23676;SDS011;31493;49.058;12.190;2022-09-09T06:11:20;9.15;;;5.57;;
23676;SDS011;31493;49.058;12.190;2022-09-09T06:13:48;9.90;;;5.95;;
23676;SDS011;31493;49.058;12.190;2022-09-09T06:16:19;8.25;;;6.18;;
23676;SDS011;31493;49.058;12.190;2022-09-09T06:18:49;8.07;;;6.40;;
23676;SDS011;31493;49.058;12.190;2022-09-09T06:21:17;8.82;;;6.15;;
23676;SDS011;31493;49.058;12.190;2022-09-09T06:23:45;9.25;;;7.13;;
23676;SDS011;31493;49.058;12.190;2022-09-09T06:26:14;12.52;;;7.22;;
23676;SDS011;31493;49.058;12.190;2022-09-09T06:28:44;9.88;;;7.00;;
23676;SDS011;31493;49.058;12.190;2022-09-09T06:31:14;9.63;;;6.60;;
23676;SDS011;31493;49.058;12.190;2022-09-09T06:33:43;11.10;;;7.20;;
23676;SDS011;31493;49.058;12.190;2022-09-09T06:36:11;10.88;;;7.07;;
23676;SDS011;31493;49.058;12.190;2022-09-09T06:38:40;9.80;;;7.35;;
23676;SDS011;31493;49.058;12.190;2022-09-09T06:41:08;8.88;;;7.13;;
23676;SDS011;31493;49.058;12.190;2022-09-09T06:43:36;8.80;;;7.03;;
23676;SDS011;31493;49.058;12.190;2022-09-09T06:46:06;10.85;;;7.10;;
23676;SDS011;31493;49.058;12.190;2022-09-09T06:48:35;9.00;;;6.90;;
23676;SDS011;31493;49.058;12.190;2022-09-09T06:51:03;11.65;;;7.00;;
23676;SDS011;31493;49.058;12.190;2022-09-09T06:53:31;9.98;;;7.20;;
23676;SDS011;31493;49.058;12.190;2022-09-09T06:55:59;7.95;;;6.28;;
23676;SDS011;31493;49.058;12.190;2022-09-09T06:58:27;11.10;;;6.03;;
23676;SDS011;31493;49.058;12.190;2022-09-09T07:01:01;8.40;;;6.57;;
23676;SDS011;31493;49.058;12.190;2022-09-09T07:03:30;13.35;;;6.22;;
23676;SDS011;31493;49.058;12.190;2022-09-09T07:05:57;9.77;;;6.25;;
23676;SDS011;31493;49.058;12.190;2022-09-09T07:08:25;6.18;;;5.57;;
23676;SDS011;31493;49.058;12.190;2022-09-09T07:10:52;9.00;;;6.05;;
23676;SDS011;31493;49.058;12.190;2022-09-09T07:13:23;5.70;;;4.90;;
23676;SDS011;31493;49.058;12.190;2022-09-09T07:15:51;6.80;;;4.93;;
23676;SDS011;31493;49.058;12.190;2022-09-09T07:18:18;6.80;;;5.07;;
23676;SDS011;31493;49.058;12.190;2022-09-09T07:20:53;8.52;;;4.85;;
23676;SDS011;31493;49.058;12.190;2022-09-09T07:23:21;11.63;;;4.55;;
23676;SDS011;31493;49.058;12.190;2022-09-09T07:25:48;12.52;;;4.50;;
23676;SDS011;31493;49.058;12.190;2022-09-09T07:28:16;5.07;;;3.78;;
23676;SDS011;31493;49.058;12.190;2022-09-09T07:30:43;5.78;;;3.83;;
23676;SDS011;31493;49.058;12.190;2022-09-09T07:33:10;6.68;;;3.65;;
23676;SDS011;31493;49.058;12.190;2022-09-09T07:35:37;7.40;;;4.05;;
23676;SDS011;31493;49.058;12.190;2022-09-09T07:38:06;4.80;;;3.40;;
23676;SDS011;31493;49.058;12.190;2022-09-09T07:40:33;8.57;;;4.38;;
23676;SDS011;31493;49.058;12.190;2022-09-09T07:43:00;6.63;;;3.80;;
23676;SDS011;31493;49.058;12.190;2022-09-09T07:45:27;6.90;;;4.18;;
23676;SDS011;31493;49.058;12.190;2022-09-09T07:47:54;5.47;;;3.90;;
23676;SDS011;31493;49.058;12.190;2022-09-09T07:50:22;6.68;;;3.75;;
23676;SDS011;31493;49.058;12.190;2022-09-09T07:52:50;5.25;;;4.60;;
23676;SDS011;31493;49.058;12.190;2022-09-09T07:55:18;7.85;;;4.28;;
23676;SDS011;31493;49.058;12.190;2022-09-09T07:57:45;4.45;;;3.38;;
23676;SDS011;31493;49.058;12.190;2022-09-09T08:00:13;6.97;;;4.35;;
23676;SDS011;31493;49.058;12.190;2022-09-09T08:02:41;6.57;;;4.15;;
23676;SDS011;31493;49.058;12.190;2022-09-09T08:05:08;5.68;;;4.28;;
23676;SDS011;31493;49.058;12.190;2022-09-09T08:07:35;10.52;;;5.45;;
23676;SDS011;31493;49.058;12.190;2022-09-09T08:10:02;6.43;;;5.32;;
23676;SDS011;31493;49.058;12.190;2022-09-09T08:12:31;7.13;;;5.40;;
23676;SDS011;31493;49.058;12.190;2022-09-09T08:14:59;10.75;;;6.25;;
23676;SDS011;31493;49.058;12.190;2022-09-09T08:17:26;6.80;;;5.97;;
23676;SDS011;31493;49.058;12.190;2022-09-09T08:19:53;8.85;;;6.35;;
23676;SDS011;31493;49.058;12.190;2022-09-09T08:22:20;12.77;;;7.50;;
23676;SDS011;31493;49.058;12.190;2022-09-09T08:24:47;9.18;;;6.63;;
23676;SDS011;31493;49.058;12.190;2022-09-09T08:27:14;7.80;;;6.28;;
23676;SDS011;31493;49.058;12.190;2022-09-09T08:29:43;11.85;;;6.70;;
23676;SDS011;31493;49.058;12.190;2022-09-09T08:32:10;9.63;;;6.60;;
23676;SDS011;31493;49.058;12.190;2022-09-09T08:34:37;10.27;;;7.05;;
23676;SDS011;31493;49.058;12.190;2022-09-09T08:37:04;7.60;;;6.75;;
23676;SDS011;31493;49.058;12.190;2022-09-09T08:39:31;11.43;;;6.68;;
23676;SDS011;31493;49.058;12.190;2022-09-09T08:42:13;11.63;;;6.70;;
23676;SDS011;31493;49.058;12.190;2022-09-09T08:44:57;11.13;;;5.78;;
23676;SDS011;31493;49.058;12.190;2022-09-09T08:47:43;10.50;;;6.85;;
23676;SDS011;31493;49.058;12.190;2022-09-09T08:50:21;7.70;;;5.70;;
23676;SDS011;31493;49.058;12.190;2022-09-09T08:52:53;8.00;;;5.80;;
23676;SDS011;31493;49.058;12.190;2022-09-09T08:55:27;8.07;;;5.07;;
23676;SDS011;31493;49.058;12.190;2022-09-09T08:58:04;7.07;;;4.32;;
23676;SDS011;31493;49.058;12.190;2022-09-09T09:00:40;9.27;;;5.50;;
23676;SDS011;31493;49.058;12.190;2022-09-09T09:03:14;9.18;;;4.50;;
23676;SDS011;31493;49.058;12.190;2022-09-09T09:05:51;8.68;;;5.03;;
23676;SDS011;31493;49.058;12.190;2022-09-09T09:08:28;7.72;;;5.18;;
23676;SDS011;31493;49.058;12.190;2022-09-09T09:11:03;12.40;;;5.53;;
23676;SDS011;31493;49.058;12.190;2022-09-09T09:13:33;8.63;;;5.00;;
23676;SDS011;31493;49.058;12.190;2022-09-09T09:18:57;7.00;;;5.30;;
23676;SDS011;31493;49.058;12.190;2022-09-09T09:21:29;8.00;;;5.43;;
23676;SDS011;31493;49.058;12.190;2022-09-09T09:24:03;9.70;;;5.82;;
23676;SDS011;31493;49.058;12.190;2022-09-09T09:26:34;8.55;;;5.28;;
23676;SDS011;31493;49.058;12.190;2022-09-09T09:29:08;9.93;;;5.97;;
23676;SDS011;31493;49.058;12.190;2022-09-09T09:31:41;8.70;;;6.10;;
23676;SDS011;31493;49.058;12.190;2022-09-09T09:34:10;10.55;;;6.63;;
23676;SDS011;31493;49.058;12.190;2022-09-09T09:36:39;10.55;;;6.00;;
23676;SDS011;31493;49.058;12.190;2022-09-09T09:39:08;7.93;;;6.28;;
23676;SDS011;31493;49.058;12.190;2022-09-09T09:41:36;5.95;;;5.07;;
23676;SDS011;31493;49.058;12.190;2022-09-09T09:44:05;5.55;;;3.97;;
23676;SDS011;31493;49.058;12.190;2022-09-09T09:46:49;6.60;;;3.70;;
23676;SDS011;31493;49.058;12.190;2022-09-09T09:49:17;7.68;;;4.05;;
23676;SDS011;31493;49.058;12.190;2022-09-09T09:51:44;4.88;;;2.80;;
23676;SDS011;31493;49.058;12.190;2022-09-09T09:54:15;7.70;;;2.90;;
23676;SDS011;31493;49.058;12.190;2022-09-09T09:56:48;6.78;;;2.67;;
23676;SDS011;31493;49.058;12.190;2022-09-09T09:59:19;5.35;;;2.60;;
23676;SDS011;31493;49.058;12.190;2022-09-09T10:01:47;4.88;;;2.58;;
23676;SDS011;31493;49.058;12.190;2022-09-09T10:04:17;4.35;;;2.50;;
23676;SDS011;31493;49.058;12.190;2022-09-09T10:06:46;4.63;;;2.63;;
23676;SDS011;31493;49.058;12.190;2022-09-09T10:09:20;7.28;;;2.67;;
23676;SDS011;31493;49.058;12.190;2022-09-09T10:11:52;5.45;;;2.63;;
23676;SDS011;31493;49.058;12.190;2022-09-09T10:14:27;3.55;;;2.22;;
23676;SDS011;31493;49.058;12.190;2022-09-09T10:17:06;5.22;;;2.50;;
23676;SDS011;31493;49.058;12.190;2022-09-09T10:19:48;5.38;;;2.30;;
23676;SDS011;31493;49.058;12.190;2022-09-09T10:22:25;5.40;;;2.30;;
23676;SDS011;31493;49.058;12.190;2022-09-09T10:27:49;4.70;;;1.83;;
23676;SDS011;31493;49.058;12.190;2022-09-09T10:30:36;4.35;;;1.85;;
23676;SDS011;31493;49.058;12.190;2022-09-09T10:33:16;5.40;;;1.90;;
23676;SDS011;31493;49.058;12.190;2022-09-09T10:35:59;5.00;;;1.80;;
23676;SDS011;31493;49.058;12.190;2022-09-09T10:38:33;5.18;;;1.63;;
23676;SDS011;31493;49.058;12.190;2022-09-09T10:41:15;2.58;;;1.35;;
23676;SDS011;31493;49.058;12.190;2022-09-09T10:43:50;4.35;;;1.25;;
23676;SDS011;31493;49.058;12.190;2022-09-09T10:46:38;5.22;;;1.63;;
23676;SDS011;31493;49.058;12.190;2022-09-09T10:49:18;7.88;;;1.90;;
23676;SDS011;31493;49.058;12.190;2022-09-09T10:51:58;5.10;;;2.30;;
23676;SDS011;31493;49.058;12.190;2022-09-09T10:54:36;5.68;;;2.72;;
23676;SDS011;31493;49.058;12.190;2022-09-09T10:57:13;10.40;;;3.08;;
23676;SDS011;31493;49.058;12.190;2022-09-09T10:59:54;4.95;;;2.97;;
23676;SDS011;31493;49.058;12.190;2022-09-09T11:02:26;4.55;;;2.40;;
23676;SDS011;31493;49.058;12.190;2022-09-09T11:04:55;6.15;;;2.13;;
23676;SDS011;31493;49.058;12.190;2022-09-09T11:07:29;5.10;;;2.30;;
23676;SDS011;31493;49.058;12.190;2022-09-09T11:10:06;4.57;;;2.10;;
23676;SDS011;31493;49.058;12.190;2022-09-09T11:12:43;3.80;;;1.80;;
23676;SDS011;31493;49.058;12.190;2022-09-09T11:15:16;4.60;;;2.15;;
23676;SDS011;31493;49.058;12.190;2022-09-09T11:17:47;4.78;;;2.50;;
23676;SDS011;31493;49.058;12.190;2022-09-09T11:20:17;6.03;;;2.75;;
23676;SDS011;31493;49.058;12.190;2022-09-09T11:22:46;4.60;;;2.30;;
23676;SDS011;31493;49.058;12.190;2022-09-09T11:25:17;8.50;;;3.05;;
23676;SDS011;31493;49.058;12.190;2022-09-09T11:27:53;6.50;;;2.65;;
23676;SDS011;31493;49.058;12.190;2022-09-09T11:30:33;3.05;;;2.20;;
23676;SDS011;31493;49.058;12.190;2022-09-09T11:33:15;4.28;;;2.70;;
23676;SDS011;31493;49.058;12.190;2022-09-09T11:35:57;5.13;;;2.47;;
23676;SDS011;31493;49.058;12.190;2022-09-09T11:38:39;5.05;;;2.30;;
23676;SDS011;31493;49.058;12.190;2022-09-09T11:41:11;3.95;;;1.88;;
23676;SDS011;31493;49.058;12.190;2022-09-09T11:43:40;2.10;;;1.40;;
23676;SDS011;31493;49.058;12.190;2022-09-09T11:46:09;3.65;;;1.75;;
23676;SDS011;31493;49.058;12.190;2022-09-09T11:48:40;7.35;;;1.50;;
23676;SDS011;31493;49.058;12.190;2022-09-09T11:51:12;5.22;;;2.13;;
23676;SDS011;31493;49.058;12.190;2022-09-09T11:53:51;4.47;;;2.42;;
23676;SDS011;31493;49.058;12.190;2022-09-09T11:58:54;5.10;;;2.63;;
23676;SDS011;31493;49.058;12.190;2022-09-09T12:01:27;4.68;;;2.55;;
23676;SDS011;31493;49.058;12.190;2022-09-09T12:04:16;4.65;;;2.80;;
23676;SDS011;31493;49.058;12.190;2022-09-09T12:06:54;4.55;;;2.25;;
23676;SDS011;31493;49.058;12.190;2022-09-09T12:09:27;5.85;;;2.40;;
23676;SDS011;31493;49.058;12.190;2022-09-09T12:15:00;6.30;;;2.20;;
23676;SDS011;31493;49.058;12.190;2022-09-09T12:17:43;4.35;;;2.20;;
23676;SDS011;31493;49.058;12.190;2022-09-09T12:20:13;4.43;;;1.90;;
23676;SDS011;31493;49.058;12.190;2022-09-09T12:22:51;6.55;;;2.00;;
23676;SDS011;31493;49.058;12.190;2022-09-09T12:25:43;4.93;;;1.58;;
23676;SDS011;31493;49.058;12.190;2022-09-09T12:28:20;2.42;;;1.83;;
23676;SDS011;31493;49.058;12.190;2022-09-09T12:30:55;4.60;;;1.90;;
23676;SDS011;31493;49.058;12.190;2022-09-09T12:33:33;3.22;;;1.60;;
23676;SDS011;31493;49.058;12.190;2022-09-09T12:36:02;2.97;;;1.83;;
23676;SDS011;31493;49.058;12.190;2022-09-09T12:38:32;2.22;;;1.50;;
23676;SDS011;31493;49.058;12.190;2022-09-09T12:41:03;3.15;;;1.90;;
23676;SDS011;31493;49.058;12.190;2022-09-09T12:43:30;2.50;;;1.45;;
23676;SDS011;31493;49.058;12.190;2022-09-09T12:45:58;5.40;;;1.70;;
23676;SDS011;31493;49.058;12.190;2022-09-09T12:48:30;5.72;;;1.50;;
23676;SDS011;31493;49.058;12.190;2022-09-09T12:51:02;6.70;;;1.58;;
23676;SDS011;31493;49.058;12.190;2022-09-09T12:53:32;4.53;;;1.60;;
23676;SDS011;31493;49.058;12.190;2022-09-09T12:56:03;4.20;;;1.60;;
23676;SDS011;31493;49.058;12.190;2022-09-09T12:58:33;3.72;;;1.85;;
23676;SDS011;31493;49.058;12.190;2022-09-09T13:01:01;3.78;;;1.90;;
23676;SDS011;31493;49.058;12.190;2022-09-09T13:03:30;3.13;;;1.65;;
23676;SDS011;31493;49.058;12.190;2022-09-09T13:06:09;4.43;;;1.90;;
23676;SDS011;31493;49.058;12.190;2022-09-09T13:08:38;6.18;;;1.90;;
23676;SDS011;31493;49.058;12.190;2022-09-09T13:11:08;3.95;;;1.70;;
23676;SDS011;31493;49.058;12.190;2022-09-09T13:13:40;3.65;;;1.70;;
23676;SDS011;31493;49.058;12.190;2022-09-09T13:16:18;3.38;;;1.55;;
23676;SDS011;31493;49.058;12.190;2022-09-09T13:18:47;3.10;;;1.80;;
23676;SDS011;31493;49.058;12.190;2022-09-09T13:21:15;5.88;;;2.10;;
23676;SDS011;31493;49.058;12.190;2022-09-09T13:23:42;5.13;;;1.73;;
23676;SDS011;31493;49.058;12.190;2022-09-09T13:26:21;3.47;;;1.65;;
23676;SDS011;31493;49.058;12.190;2022-09-09T13:28:50;5.80;;;1.92;;
23676;SDS011;31493;49.058;12.190;2022-09-09T13:31:22;4.38;;;1.80;;
23676;SDS011;31493;49.058;12.190;2022-09-09T13:33:52;5.88;;;1.70;;
23676;SDS011;31493;49.058;12.190;2022-09-09T13:36:27;6.82;;;2.03;;
23676;SDS011;31493;49.058;12.190;2022-09-09T13:38:58;4.65;;;1.70;;
23676;SDS011;31493;49.058;12.190;2022-09-09T13:41:29;3.58;;;1.90;;
23676;SDS011;31493;49.058;12.190;2022-09-09T13:43:58;3.60;;;1.90;;
23676;SDS011;31493;49.058;12.190;2022-09-09T13:46:30;5.50;;;1.63;;
23676;SDS011;31493;49.058;12.190;2022-09-09T13:49:00;4.25;;;2.25;;
23676;SDS011;31493;49.058;12.190;2022-09-09T13:54:03;3.60;;;1.80;;
23676;SDS011;31493;49.058;12.190;2022-09-09T13:56:33;4.03;;;1.80;;
23676;SDS011;31493;49.058;12.190;2022-09-09T13:59:00;5.15;;;2.10;;
23676;SDS011;31493;49.058;12.190;2022-09-09T14:01:28;2.60;;;1.55;;
23676;SDS011;31493;49.058;12.190;2022-09-09T14:03:55;4.85;;;1.75;;
23676;SDS011;31493;49.058;12.190;2022-09-09T14:06:22;3.47;;;1.50;;
23676;SDS011;31493;49.058;12.190;2022-09-09T14:08:50;2.38;;;1.65;;
23676;SDS011;31493;49.058;12.190;2022-09-09T14:11:17;5.70;;;1.95;;
23676;SDS011;31493;49.058;12.190;2022-09-09T14:13:48;4.68;;;1.90;;
23676;SDS011;31493;49.058;12.190;2022-09-09T14:16:16;4.25;;;1.48;;
23676;SDS011;31493;49.058;12.190;2022-09-09T14:18:43;6.07;;;1.48;;
23676;SDS011;31493;49.058;12.190;2022-09-09T14:21:11;4.22;;;1.30;;
23676;SDS011;31493;49.058;12.190;2022-09-09T14:23:38;10.73;;;1.63;;
23676;SDS011;31493;49.058;12.190;2022-09-09T14:26:05;4.72;;;1.50;;
23676;SDS011;31493;49.058;12.190;2022-09-09T14:28:33;3.13;;;1.10;;
23676;SDS011;31493;49.058;12.190;2022-09-09T14:31:03;1.90;;;0.90;;
23676;SDS011;31493;49.058;12.190;2022-09-09T14:33:30;3.40;;;0.90;;
23676;SDS011;31493;49.058;12.190;2022-09-09T14:35:58;3.67;;;0.80;;
23676;SDS011;31493;49.058;12.190;2022-09-09T14:38:28;4.90;;;1.20;;
23676;SDS011;31493;49.058;12.190;2022-09-09T14:40:56;4.57;;;1.05;;
23676;SDS011;31493;49.058;12.190;2022-09-09T14:43:24;3.25;;;1.00;;
23676;SDS011;31493;49.058;12.190;2022-09-09T14:45:51;2.45;;;1.10;;
23676;SDS011;31493;49.058;12.190;2022-09-09T14:48:20;5.05;;;1.10;;
23676;SDS011;31493;49.058;12.190;2022-09-09T14:50:47;2.95;;;1.38;;
23676;SDS011;31493;49.058;12.190;2022-09-09T14:53:15;2.55;;;1.30;;
23676;SDS011;31493;49.058;12.190;2022-09-09T14:55:43;2.35;;;1.10;;
23676;SDS011;31493;49.058;12.190;2022-09-09T14:58:12;2.63;;;1.00;;
23676;SDS011;31493;49.058;12.190;2022-09-09T15:00:40;2.45;;;1.10;;
23676;SDS011;31493;49.058;12.190;2022-09-09T15:03:07;3.55;;;1.20;;
23676;SDS011;31493;49.058;12.190;2022-09-09T15:05:37;4.47;;;1.10;;
23676;SDS011;31493;49.058;12.190;2022-09-09T15:08:04;2.33;;;1.00;;
23676;SDS011;31493;49.058;12.190;2022-09-09T15:10:31;3.75;;;1.10;;